Time;durP1;ratioP1;P1;durP2;ratioP2;P2;SDS_P1;SDS_P2;PMS_P1;PMS_P2;Temp;Humidity;BMP_temperature;BMP_pressure;BME280_temperature;BME280_humidity;BME280_pressure;Samples;Min_cycle;Max_cycle;Signal;HPM_P1;HPM_P2
2023/12/15 00:01:03;;;;;;;11.97;9.30;;;7.60;99.90;;;;;;5049289;28;20239;-72
2023/12/15 00:03:29;;;;;;;11.60;9.43;;;7.70;99.90;;;;;;5050006;28;20207;-72
2023/12/15 00:05:57;;;;;;;12.40;8.40;;;7.70;99.90;;;;;;5050097;28;20579;-72
2023/12/15 00:08:23;;;;;;;13.95;9.68;;;7.70;99.90;;;;;;5050045;28;20579;-72
2023/12/15 00:10:49;;;;;;;13.85;9.23;;;7.70;99.90;;;;;;5014863;28;20185;-72
2023/12/15 00:13:15;;;;;;;12.53;9.47;;;7.80;99.90;;;;;;5032170;28;20181;-72
2023/12/15 00:15:41;;;;;;;12.13;8.90;;;7.80;99.90;;;;;;5049498;28;20586;-73
2023/12/15 00:18:07;;;;;;;10.33;9.10;;;7.80;99.90;;;;;;5050132;28;20598;-73
2023/12/15 00:20:32;;;;;;;10.93;8.67;;;7.80;99.90;;;;;;5029154;28;21227;-73
2023/12/15 00:22:58;;;;;;;10.70;7.90;;;7.90;99.90;;;;;;5031683;28;20205;-73
2023/12/15 00:25:24;;;;;;;14.60;10.53;;;7.90;99.90;;;;;;5031977;28;20587;-73
2023/12/15 00:27:50;;;;;;;12.70;10.17;;;7.90;99.90;;;;;;5015597;28;20188;-73
2023/12/15 00:30:15;;;;;;;11.90;10.20;;;7.90;99.90;;;;;;5031062;28;20236;-73
2023/12/15 00:32:41;;;;;;;14.40;11.20;;;7.90;99.90;;;;;;5049685;28;20272;-73
2023/12/15 00:35:07;;;;;;;11.50;9.60;;;7.90;99.90;;;;;;5031925;28;20177;-73
2023/12/15 00:37:33;;;;;;;17.27;12.97;;;7.90;99.90;;;;;;5049376;28;20608;-73
2023/12/15 00:39:58;;;;;;;11.83;10.50;;;7.90;99.90;;;;;;5030899;28;20722;-73
2023/12/15 00:42:24;;;;;;;13.57;8.90;;;7.90;99.90;;;;;;5049774;28;20207;-73
2023/12/15 00:44:50;;;;;;;12.97;9.43;;;7.90;99.90;;;;;;5049615;28;20169;-73
2023/12/15 00:47:16;;;;;;;11.85;7.55;;;8.00;99.90;;;;;;5031757;28;20173;-74
2023/12/15 00:49:41;;;;;;;14.30;10.53;;;8.10;99.90;;;;;;5031020;28;20185;-73
2023/12/15 00:52:07;;;;;;;14.77;10.50;;;8.10;99.90;;;;;;5049465;28;20206;-73
2023/12/15 00:54:33;;;;;;;13.97;9.77;;;8.10;99.90;;;;;;5031840;28;20165;-73
2023/12/15 00:56:59;;;;;;;16.73;11.40;;;8.10;99.90;;;;;;5054257;28;20165;-73
2023/12/15 00:59:26;;;;;;;12.50;9.98;;;8.10;99.90;;;;;;5052545;28;20579;-73
2023/12/15 01:01:52;;;;;;;12.35;10.07;;;8.10;99.90;;;;;;5035102;28;20173;-73
2023/12/15 01:04:17;;;;;;;16.43;11.30;;;8.10;99.90;;;;;;5053033;28;20192;-73
2023/12/15 01:06:43;;;;;;;12.17;10.70;;;8.00;99.90;;;;;;5018386;28;20184;-73
2023/12/15 01:09:09;;;;;;;13.33;10.87;;;8.10;99.90;;;;;;5034583;28;20200;-73
2023/12/15 01:11:34;;;;;;;14.27;11.20;;;8.10;99.90;;;;;;5052953;28;20614;-74
2023/12/15 01:14:00;;;;;;;14.93;11.07;;;8.10;99.90;;;;;;5035063;28;20185;-73
2023/12/15 01:16:26;;;;;;;16.95;12.80;;;8.00;99.90;;;;;;5052831;28;20173;-73
2023/12/15 01:18:52;;;;;;;16.57;11.20;;;8.00;99.90;;;;;;5052888;28;20179;-73
2023/12/15 01:21:18;;;;;;;14.30;12.07;;;8.00;99.90;;;;;;5034962;28;20708;-73
2023/12/15 01:23:44;;;;;;;13.00;10.90;;;8.00;99.90;;;;;;5035685;28;20267;-73
2023/12/15 01:26:09;;;;;;;16.53;10.73;;;8.00;99.90;;;;;;5018632;28;20659;-73
2023/12/15 01:28:35;;;;;;;18.40;10.67;;;8.10;99.90;;;;;;5052718;28;20169;-73
2023/12/15 01:31:03;;;;;;;12.17;10.40;;;8.10;99.90;;;;;;5033851;28;20262;-73
2023/12/15 01:33:29;;;;;;;13.20;10.23;;;8.10;99.90;;;;;;5054203;28;20208;-73
2023/12/15 01:35:55;;;;;;;13.40;10.48;;;8.10;99.90;;;;;;5034009;28;20223;-73
2023/12/15 01:38:21;;;;;;;15.53;9.83;;;8.10;99.90;;;;;;5034553;28;20623;-73
2023/12/15 01:40:47;;;;;;;17.95;11.88;;;8.10;99.90;;;;;;5033380;28;20638;-73
2023/12/15 01:43:13;;;;;;;15.82;12.80;;;8.10;99.90;;;;;;5034084;28;20545;-73
2023/12/15 01:45:39;;;;;;;14.57;11.30;;;8.10;99.90;;;;;;5052187;28;20184;-73
2023/12/15 01:48:06;;;;;;;16.73;11.40;;;8.10;99.90;;;;;;5052183;28;20573;-73
2023/12/15 01:50:32;;;;;;;14.23;11.43;;;8.10;99.90;;;;;;5016224;28;20204;-73
2023/12/15 01:52:57;;;;;;;15.87;11.77;;;8.20;99.90;;;;;;5034233;28;20566;-73
2023/12/15 01:55:23;;;;;;;15.30;12.37;;;8.10;99.90;;;;;;5033514;28;20230;-73
2023/12/15 01:57:49;;;;;;;14.47;11.63;;;8.10;99.90;;;;;;5033580;28;20188;-73
2023/12/15 02:00:14;;;;;;;16.03;12.07;;;8.10;99.90;;;;;;5051272;28;20193;-74
2023/12/15 02:02:40;;;;;;;14.20;10.23;;;8.10;99.90;;;;;;5050266;28;20212;-73
2023/12/15 02:05:06;;;;;;;17.90;13.13;;;8.10;99.90;;;;;;5005619;28;20177;-73
2023/12/15 02:07:32;;;;;;;10.73;9.60;;;8.20;99.90;;;;;;5059440;28;20626;-73
2023/12/15 02:09:58;;;;;;;15.17;11.30;;;8.20;99.90;;;;;;5051930;28;20623;-73
2023/12/15 02:12:24;;;;;;;14.70;11.75;;;8.20;99.90;;;;;;5034201;28;21091;-73
2023/12/15 02:14:50;;;;;;;14.45;9.68;;;8.20;99.90;;;;;;5033482;28;20177;-73
2023/12/15 02:17:16;;;;;;;12.33;10.13;;;8.20;99.90;;;;;;5033669;28;20165;-73
2023/12/15 02:19:42;;;;;;;12.70;10.37;;;8.30;99.90;;;;;;5032229;28;20946;-74
2023/12/15 02:22:08;;;;;;;14.30;12.07;;;8.20;99.90;;;;;;5033249;28;20678;-73
2023/12/15 02:24:33;;;;;;;12.55;10.60;;;8.30;99.90;;;;;;5051410;28;20204;-73
2023/12/15 02:26:59;;;;;;;13.60;11.60;;;8.30;99.90;;;;;;5033643;28;20196;-73
2023/12/15 02:29:26;;;;;;;13.77;10.93;;;8.30;99.90;;;;;;5032756;28;20204;-73
2023/12/15 02:31:53;;;;;;;15.48;11.57;;;8.20;99.90;;;;;;5032416;28;20169;-73
2023/12/15 02:34:18;;;;;;;14.80;11.63;;;8.20;99.90;;;;;;5032650;28;20188;-73
2023/12/15 02:36:44;;;;;;;14.27;10.87;;;8.20;99.90;;;;;;5017063;28;20187;-74
2023/12/15 02:39:10;;;;;;;14.17;11.10;;;8.20;99.90;;;;;;5032687;28;20177;-73
2023/12/15 02:41:37;;;;;;;13.48;10.68;;;8.20;99.90;;;;;;5032935;28;20247;-73
2023/12/15 02:44:02;;;;;;;12.30;9.57;;;8.30;99.90;;;;;;5032985;28;20236;-73
2023/12/15 02:46:28;;;;;;;13.03;10.53;;;8.30;99.90;;;;;;5033595;28;20205;-73
2023/12/15 02:48:54;;;;;;;14.30;10.47;;;8.40;99.90;;;;;;5018093;28;20184;-74
2023/12/15 02:51:30;;;;;;;13.70;11.47;;;8.40;99.90;;;;;;5050260;28;20196;-73
2023/12/15 02:53:58;;;;;;;14.18;11.85;;;8.40;99.90;;;;;;5032691;28;20180;-73
2023/12/15 02:56:25;;;;;;;13.85;11.15;;;8.40;99.90;;;;;;5032787;28;20193;-73
2023/12/15 02:58:50;;;;;;;13.15;10.90;;;8.40;99.90;;;;;;5032530;28;20181;-73
2023/12/15 03:01:16;;;;;;;12.87;10.00;;;8.40;99.90;;;;;;5049909;28;20532;-73
2023/12/15 03:03:42;;;;;;;13.53;11.03;;;8.40;99.90;;;;;;5032751;28;20201;-73
2023/12/15 03:06:08;;;;;;;17.70;11.93;;;8.40;99.90;;;;;;5032821;28;20276;-73
2023/12/15 03:08:34;;;;;;;16.08;11.40;;;8.40;99.90;;;;;;5045250;28;20180;-73
2023/12/15 03:11:00;;;;;;;14.67;11.97;;;8.40;99.90;;;;;;5049878;28;20749;-73
2023/12/15 03:13:26;;;;;;;20.87;14.77;;;8.30;99.90;;;;;;5032595;28;21132;-73
2023/12/15 03:15:52;;;;;;;12.63;9.90;;;8.30;99.90;;;;;;5032277;28;20654;-73
2023/12/15 03:18:17;;;;;;;14.45;10.93;;;8.30;99.90;;;;;;5039197;28;20775;-74
2023/12/15 03:20:46;;;;;;;15.60;10.20;;;8.30;99.90;;;;;;5062142;28;20801;-73
2023/12/15 03:23:12;;;;;;;14.05;11.55;;;8.30;99.90;;;;;;5032298;28;20196;-73
2023/12/15 03:25:37;;;;;;;11.70;8.83;;;8.20;99.90;;;;;;5034149;28;20184;-73
2023/12/15 03:28:03;;;;;;;14.63;10.50;;;8.20;99.90;;;;;;5040283;28;20169;-73
2023/12/15 03:30:29;;;;;;;11.00;9.00;;;8.30;99.90;;;;;;5031274;28;20189;-73
2023/12/15 03:32:54;;;;;;;13.50;10.90;;;8.30;99.90;;;;;;5050372;28;20263;-73
2023/12/15 03:35:20;;;;;;;20.40;10.73;;;8.20;99.90;;;;;;5016231;28;20173;-73
2023/12/15 03:37:46;;;;;;;16.40;9.20;;;8.30;99.90;;;;;;5050048;28;20708;-73
2023/12/15 03:40:12;;;;;;;17.60;12.07;;;8.30;99.90;;;;;;5049134;28;20212;-73
2023/12/15 03:42:37;;;;;;;11.47;8.83;;;8.30;99.90;;;;;;4996022;28;20225;-73
2023/12/15 03:45:04;;;;;;;12.03;8.70;;;8.30;99.90;;;;;;5065067;28;21145;-74
2023/12/15 03:47:30;;;;;;;11.82;10.57;;;8.30;99.90;;;;;;5032075;28;21343;-73
2023/12/15 03:49:56;;;;;;;14.03;9.57;;;8.30;99.90;;;;;;5049055;28;20232;-73
2023/12/15 03:52:22;;;;;;;12.53;10.20;;;8.30;99.90;;;;;;5032136;28;20607;-73
2023/12/15 03:54:47;;;;;;;14.60;9.77;;;8.30;99.90;;;;;;5015368;28;20653;-73
2023/12/15 03:57:13;;;;;;;14.13;9.30;;;8.30;99.90;;;;;;5032369;28;20766;-73
2023/12/15 03:59:39;;;;;;;10.53;7.40;;;8.30;99.90;;;;;;5049187;28;20259;-73
2023/12/15 04:02:05;;;;;;;14.17;10.50;;;8.30;99.90;;;;;;5033579;28;20207;-73
2023/12/15 04:04:32;;;;;;;11.50;7.80;;;8.30;99.90;;;;;;5049743;28;20625;-73
2023/12/15 04:06:58;;;;;;;8.70;7.72;;;8.40;99.90;;;;;;5049790;28;20169;-73
2023/12/15 04:09:24;;;;;;;10.07;7.90;;;8.40;99.90;;;;;;5031395;28;20203;-73
2023/12/15 04:11:50;;;;;;;12.82;8.68;;;8.40;99.90;;;;;;5031919;28;20181;-73
2023/12/15 04:14:15;;;;;;;10.40;7.90;;;8.40;99.90;;;;;;5031842;28;20634;-74
2023/12/15 04:16:41;;;;;;;14.00;9.57;;;8.50;99.90;;;;;;5028623;28;20705;-73
2023/12/15 04:19:07;;;;;;;10.03;8.13;;;8.50;99.90;;;;;;5023120;28;20577;-73
2023/12/15 04:21:33;;;;;;;10.50;7.63;;;8.50;99.90;;;;;;5028952;28;20944;-76
2023/12/15 04:23:59;;;;;;;13.00;8.70;;;8.50;99.90;;;;;;5048528;28;21018;-76
2023/12/15 04:26:25;;;;;;;14.20;7.70;;;8.50;99.90;;;;;;5032032;28;20233;-76
2023/12/15 04:28:51;;;;;;;10.60;6.97;;;8.50;99.90;;;;;;5031632;28;20184;-76
2023/12/15 04:31:17;;;;;;;12.73;7.80;;;8.50;99.90;;;;;;5051383;28;20193;-76
2023/12/15 04:33:43;;;;;;;11.00;7.97;;;8.60;99.90;;;;;;5035403;28;20191;-76
2023/12/15 04:36:09;;;;;;;8.50;6.83;;;8.60;99.90;;;;;;5035707;28;20170;-76
2023/12/15 04:38:35;;;;;;;9.13;7.15;;;8.60;99.90;;;;;;5038833;28;20169;-76
2023/12/15 04:41:01;;;;;;;9.60;7.15;;;8.60;99.90;;;;;;5052635;28;20307;-76
2023/12/15 04:43:27;;;;;;;11.10;7.75;;;8.60;99.90;;;;;;5053194;28;20274;-76
2023/12/15 04:45:54;;;;;;;10.63;7.63;;;8.60;99.90;;;;;;5053213;28;20223;-76
2023/12/15 04:48:19;;;;;;;10.60;7.60;;;8.60;99.90;;;;;;5035544;28;20176;-76
2023/12/15 04:50:45;;;;;;;10.00;6.90;;;8.70;99.90;;;;;;5034826;28;20240;-76
2023/12/15 04:53:10;;;;;;;9.37;7.40;;;8.70;99.90;;;;;;5035181;28;20235;-76
2023/12/15 04:55:36;;;;;;;11.20;7.93;;;8.70;99.90;;;;;;5053013;28;20183;-76
2023/12/15 04:58:02;;;;;;;9.07;7.43;;;8.70;99.90;;;;;;5018310;28;20616;-76
2023/12/15 05:00:27;;;;;;;9.07;8.07;;;8.70;99.90;;;;;;5001497;28;20220;-76
2023/12/15 05:02:53;;;;;;;11.87;8.23;;;8.70;99.90;;;;;;5034671;28;20497;-76
2023/12/15 05:05:19;;;;;;;9.80;7.33;;;8.60;99.90;;;;;;5034992;28;20173;-76
2023/12/15 05:07:45;;;;;;;8.40;7.40;;;8.70;99.90;;;;;;5052697;28;20705;-76
2023/12/15 05:10:11;;;;;;;11.30;8.70;;;8.70;99.90;;;;;;5034032;28;20280;-75
2023/12/15 05:12:37;;;;;;;9.97;7.10;;;8.70;99.90;;;;;;5052798;28;20578;-77
2023/12/15 05:15:04;;;;;;;7.45;6.45;;;8.70;99.90;;;;;;5035198;28;20587;-75
2023/12/15 05:17:30;;;;;;;10.30;7.07;;;8.70;99.90;;;;;;5061530;28;20610;-75
2023/12/15 05:19:56;;;;;;;7.80;6.22;;;8.70;99.90;;;;;;5050640;28;20228;-76
2023/12/15 05:22:22;;;;;;;9.50;7.53;;;8.70;99.90;;;;;;5034635;28;20243;-75
2023/12/15 05:24:48;;;;;;;11.00;7.40;;;8.70;99.90;;;;;;5052555;28;20181;-76
2023/12/15 05:27:14;;;;;;;10.27;7.50;;;8.70;99.90;;;;;;5018197;28;20215;-76
2023/12/15 05:29:45;;;;;;;9.93;8.50;;;8.60;99.90;;;;;;5051876;28;20575;-76
2023/12/15 05:32:14;;;;;;;11.45;7.45;;;8.60;99.90;;;;;;5046692;28;20200;-76
2023/12/15 05:34:41;;;;;;;9.02;7.72;;;8.60;99.90;;;;;;5052600;28;20173;-76
2023/12/15 05:37:06;;;;;;;10.50;7.57;;;8.50;99.90;;;;;;5051922;28;20216;-76
2023/12/15 05:39:32;;;;;;;7.83;6.47;;;8.50;99.90;;;;;;5033210;28;20266;-76
2023/12/15 05:41:58;;;;;;;11.37;7.73;;;8.50;99.90;;;;;;5025426;28;20173;-76
2023/12/15 05:44:24;;;;;;;9.67;7.23;;;8.50;99.90;;;;;;5034060;28;20638;-76
2023/12/15 05:46:49;;;;;;;9.80;6.97;;;8.50;99.90;;;;;;5053031;28;20181;-75
2023/12/15 05:49:15;;;;;;;9.17;7.00;;;8.50;99.90;;;;;;5034034;28;20195;-76
2023/12/15 05:51:47;;;;;;;12.93;7.90;;;8.50;99.90;;;;;;5034728;28;20185;-76
2023/12/15 05:54:12;;;;;;;7.90;5.57;;;8.50;99.90;;;;;;5024757;28;20173;-76
2023/12/15 05:56:39;;;;;;;8.70;6.93;;;8.50;99.90;;;;;;5034524;28;20724;-76
2023/12/15 05:59:04;;;;;;;10.23;7.15;;;8.50;99.90;;;;;;5033633;28;20169;-76
2023/12/15 06:01:30;;;;;;;8.50;6.63;;;8.50;99.90;;;;;;5034241;28;20200;-76
2023/12/15 06:03:56;;;;;;;8.80;6.60;;;8.50;99.90;;;;;;5033972;28;20679;-76
2023/12/15 06:06:21;;;;;;;9.10;6.73;;;8.50;99.90;;;;;;5052201;28;20219;-76
2023/12/15 06:08:48;;;;;;;8.20;6.77;;;8.40;99.90;;;;;;5034050;28;20222;-76
2023/12/15 06:11:14;;;;;;;8.70;6.50;;;8.40;99.90;;;;;;5033209;28;20193;-76
2023/12/15 06:13:41;;;;;;;9.10;6.20;;;8.40;99.90;;;;;;5051715;28;20223;-76
2023/12/15 06:16:08;;;;;;;9.82;7.50;;;8.50;99.90;;;;;;5033178;28;20666;-76
2023/12/15 06:18:33;;;;;;;9.05;6.85;;;8.50;99.90;;;;;;5033901;28;20177;-76
2023/12/15 06:20:59;;;;;;;9.87;7.70;;;8.50;99.90;;;;;;5033039;28;20207;-76
2023/12/15 06:23:25;;;;;;;8.17;6.70;;;8.40;99.90;;;;;;5033710;28;20234;-76
2023/12/15 06:25:50;;;;;;;8.73;6.60;;;8.50;99.90;;;;;;5049866;28;20294;-76
2023/12/15 06:28:16;;;;;;;9.03;6.60;;;8.50;99.90;;;;;;5051460;28;20168;-76
2023/12/15 06:30:42;;;;;;;8.53;5.97;;;8.50;99.90;;;;;;5054592;28;20242;-76
2023/12/15 06:33:08;;;;;;;8.30;6.97;;;8.60;99.90;;;;;;5048469;28;20543;-75
2023/12/15 06:35:33;;;;;;;8.70;6.67;;;8.60;99.90;;;;;;5045417;28;20177;-75
2023/12/15 06:38:00;;;;;;;14.20;6.83;;;8.60;99.90;;;;;;5032869;28;20643;-76
2023/12/15 06:40:26;;;;;;;5.85;5.13;;;8.70;99.90;;;;;;5050108;28;21201;-76
2023/12/15 06:42:52;;;;;;;8.60;6.60;;;8.70;99.90;;;;;;5050903;28;20208;-76
2023/12/15 06:45:17;;;;;;;8.60;6.03;;;8.80;99.90;;;;;;5030386;28;20230;-76
2023/12/15 06:47:43;;;;;;;7.70;5.93;;;8.80;99.90;;;;;;5054811;28;20177;-76
2023/12/15 06:50:09;;;;;;;8.63;6.27;;;8.80;99.90;;;;;;5031578;28;20727;-76
2023/12/15 06:52:35;;;;;;;10.20;7.27;;;8.80;99.90;;;;;;5032564;28;20332;-76
2023/12/15 06:55:02;;;;;;;7.93;6.45;;;8.80;99.90;;;;;;5032586;28;20188;-76
2023/12/15 06:57:28;;;;;;;9.25;6.38;;;8.90;99.90;;;;;;5000249;28;20169;-77
2023/12/15 06:59:54;;;;;;;9.37;6.70;;;8.90;99.90;;;;;;5050036;28;20271;-77
2023/12/15 07:02:19;;;;;;;9.90;7.60;;;8.90;99.90;;;;;;5050969;28;20602;-76
2023/12/15 07:04:45;;;;;;;10.60;6.87;;;9.00;99.90;;;;;;5032890;28;20204;-75
2023/12/15 07:07:11;;;;;;;12.93;7.97;;;9.00;99.90;;;;;;5036247;28;20388;-75
2023/12/15 07:09:37;;;;;;;10.47;7.37;;;9.10;99.90;;;;;;5015342;28;20210;-75
2023/12/15 07:12:03;;;;;;;11.90;7.93;;;9.10;99.90;;;;;;5032329;28;21029;-76
2023/12/15 07:14:29;;;;;;;8.85;7.57;;;9.20;99.90;;;;;;5016399;28;20634;-76
2023/12/15 07:16:55;;;;;;;10.45;6.80;;;9.20;99.90;;;;;;5049321;28;20180;-77
2023/12/15 07:19:20;;;;;;;8.27;7.13;;;9.20;99.90;;;;;;5050352;28;20731;-77
2023/12/15 07:21:47;;;;;;;7.80;6.03;;;9.30;99.90;;;;;;5032503;28;20595;-77
2023/12/15 07:24:13;;;;;;;7.57;6.70;;;9.30;99.90;;;;;;5050842;28;20207;-77
2023/12/15 07:26:38;;;;;;;8.13;7.00;;;9.40;99.90;;;;;;5050052;28;20177;-77
2023/12/15 07:29:05;;;;;;;9.53;7.83;;;9.40;99.90;;;;;;5049994;28;20584;-77
2023/12/15 07:31:31;;;;;;;9.25;7.32;;;9.40;99.90;;;;;;5050622;28;20251;-77
2023/12/15 07:33:57;;;;;;;8.33;6.93;;;9.40;99.90;;;;;;5012964;28;20245;-77
2023/12/15 07:36:22;;;;;;;10.40;8.03;;;9.50;99.90;;;;;;5049357;28;20580;-77
2023/12/15 07:38:48;;;;;;;8.70;7.47;;;9.50;99.90;;;;;;5039965;28;20165;-78
2023/12/15 07:41:14;;;;;;;8.50;7.60;;;9.60;99.90;;;;;;5048993;28;20218;-77
2023/12/15 07:43:40;;;;;;;8.80;6.63;;;9.60;99.90;;;;;;5033439;28;20631;-78
2023/12/15 07:46:16;;;;;;;9.77;7.53;;;9.60;99.90;;;;;;5053077;28;20525;-78
2023/12/15 07:48:41;;;;;;;9.02;7.53;;;9.60;99.90;;;;;;5032245;28;20177;-78
2023/12/15 07:51:18;;;;;;;9.13;6.77;;;9.70;99.90;;;;;;5031303;28;20730;-76
2023/12/15 07:53:44;;;;;;;10.50;7.13;;;9.70;99.90;;;;;;5030076;28;20200;-77
2023/12/15 07:56:22;;;;;;;13.93;9.30;;;9.70;99.90;;;;;;5031510;28;20260;-77
2023/12/15 07:58:49;;;;;;;8.70;7.68;;;9.80;99.90;;;;;;5047864;28;20196;-77
2023/12/15 08:01:19;;;;;;;9.30;8.25;;;9.80;99.90;;;;;;5031186;28;20215;-77
2023/12/15 08:03:45;;;;;;;10.70;7.25;;;9.80;99.90;;;;;;5030967;28;20231;-77
2023/12/15 08:06:15;;;;;;;11.25;7.95;;;9.80;99.90;;;;;;5035189;28;20581;-77
2023/12/15 08:08:43;;;;;;;10.40;7.82;;;9.90;99.90;;;;;;5053430;28;20880;-77
2023/12/15 08:11:10;;;;;;;11.60;8.93;;;9.90;99.90;;;;;;5034916;28;20201;-77
2023/12/15 08:13:36;;;;;;;11.60;8.23;;;9.90;99.90;;;;;;5035803;28;20185;-77
2023/12/15 08:16:03;;;;;;;12.30;9.82;;;9.90;99.90;;;;;;5053740;28;20267;-77
2023/12/15 08:18:29;;;;;;;13.52;9.07;;;10.00;99.90;;;;;;5035955;28;20643;-78
2023/12/15 08:20:55;;;;;;;12.40;9.85;;;10.00;99.90;;;;;;5035843;28;20287;-77
2023/12/15 08:23:21;;;;;;;11.10;9.77;;;10.10;99.90;;;;;;5053791;28;20235;-76
2023/12/15 08:25:47;;;;;;;11.70;9.47;;;10.10;99.90;;;;;;5036071;28;20605;-76
2023/12/15 08:28:13;;;;;;;13.90;9.73;;;10.10;99.90;;;;;;5035679;28;20646;-77
2023/12/15 08:30:39;;;;;;;12.73;10.00;;;10.20;99.90;;;;;;5033050;28;21039;-76
2023/12/15 08:33:05;;;;;;;13.85;10.32;;;10.20;99.90;;;;;;5052807;28;20205;-77
2023/12/15 08:35:31;;;;;;;10.52;8.55;;;10.30;99.90;;;;;;5032122;28;20273;-78
2023/12/15 08:37:57;;;;;;;13.93;9.67;;;10.30;99.90;;;;;;5032129;28;20267;-78
2023/12/15 08:40:23;;;;;;;15.38;10.10;;;10.30;99.90;;;;;;5052693;28;20662;-77
2023/12/15 08:42:49;;;;;;;12.32;9.63;;;10.40;99.90;;;;;;5053330;28;20259;-77
2023/12/15 08:45:15;;;;;;;17.07;12.07;;;10.40;99.90;;;;;;5053236;28;20180;-77
2023/12/15 08:47:41;;;;;;;16.95;12.20;;;10.50;99.90;;;;;;5035454;28;20247;-77
2023/12/15 08:50:07;;;;;;;14.70;11.90;;;10.50;99.90;;;;;;5041426;28;20684;-76
2023/12/15 08:52:33;;;;;;;16.43;13.30;;;10.50;99.90;;;;;;5032944;28;20595;-77
2023/12/15 08:54:59;;;;;;;17.07;13.60;;;10.50;99.90;;;;;;5034754;28;20598;-78
2023/12/15 08:57:24;;;;;;;16.60;13.55;;;10.50;99.90;;;;;;5034361;28;20601;-77
2023/12/15 08:59:51;;;;;;;19.90;13.93;;;10.60;99.90;;;;;;5036840;28;20659;-77
2023/12/15 09:02:16;;;;;;;23.70;17.67;;;10.60;99.90;;;;;;5034371;28;20181;-77
2023/12/15 09:04:42;;;;;;;24.60;15.70;;;10.60;99.90;;;;;;5035215;28;20180;-77
2023/12/15 09:07:08;;;;;;;23.77;15.67;;;10.60;99.90;;;;;;5057259;28;20591;-77
2023/12/15 09:09:35;;;;;;;23.30;17.00;;;10.70;99.90;;;;;;5034165;28;20259;-77
2023/12/15 09:12:01;;;;;;;23.92;16.25;;;10.70;99.90;;;;;;5062091;28;20280;-78
2023/12/15 09:14:29;;;;;;;22.88;16.10;;;10.80;99.90;;;;;;5053067;28;20179;-77
2023/12/15 09:16:55;;;;;;;22.05;15.95;;;10.80;99.90;;;;;;5044383;28;20185;-79
2023/12/15 09:19:21;;;;;;;19.70;14.82;;;10.80;99.90;;;;;;5050513;28;20655;-79
2023/12/15 09:21:47;;;;;;;19.85;15.00;;;10.80;99.90;;;;;;5053057;28;20200;-78
2023/12/15 09:24:17;;;;;;;19.47;15.83;;;10.80;99.90;;;;;;5033063;28;20202;-78
2023/12/15 09:26:44;;;;;;;27.48;16.48;;;10.90;99.90;;;;;;5034969;28;20626;-77
2023/12/15 09:29:11;;;;;;;20.70;16.77;;;10.90;99.90;;;;;;5020208;28;20184;-79
2023/12/15 09:31:37;;;;;;;21.17;15.15;;;10.90;99.90;;;;;;5036789;28;20221;-78
2023/12/15 09:34:03;;;;;;;18.80;14.30;;;10.90;99.90;;;;;;5034926;28;20212;-78
2023/12/15 09:36:30;;;;;;;18.90;15.00;;;10.90;99.90;;;;;;5057662;28;20589;-78
2023/12/15 09:38:55;;;;;;;18.50;15.00;;;10.90;99.90;;;;;;5034654;28;20630;-78
2023/12/15 09:41:22;;;;;;;20.57;15.20;;;10.90;99.90;;;;;;5051843;28;20766;-78
2023/12/15 09:43:48;;;;;;;20.52;14.70;;;11.00;99.90;;;;;;5052735;28;20211;-78
2023/12/15 09:46:14;;;;;;;19.95;14.93;;;10.90;99.90;;;;;;5034839;28;20231;-78
2023/12/15 09:48:40;;;;;;;22.98;14.93;;;11.00;99.90;;;;;;5052592;28;20188;-79
2023/12/15 09:51:24;;;;;;;23.30;17.17;;;11.00;99.90;;;;;;5051268;28;20207;-79
2023/12/15 09:53:51;;;;;;;20.67;15.00;;;11.00;99.90;;;;;;5032280;28;20751;-78
2023/12/15 09:56:17;;;;;;;20.02;14.32;;;11.10;99.90;;;;;;5050730;28;20252;-79
2023/12/15 09:58:43;;;;;;;22.93;16.10;;;11.10;99.90;;;;;;5062089;28;20312;-78
2023/12/15 10:01:12;;;;;;;19.27;15.38;;;11.20;99.90;;;;;;5032729;28;21208;-77
2023/12/15 10:03:39;;;;;;;21.30;15.23;;;11.20;99.90;;;;;;5033455;28;20205;-78
2023/12/15 10:06:05;;;;;;;20.05;15.10;;;11.20;99.90;;;;;;5033394;28;20173;-78
2023/12/15 10:08:43;;;;;;;20.20;15.13;;;11.20;99.90;;;;;;5033173;28;20177;-78
2023/12/15 10:11:09;;;;;;;24.30;17.50;;;11.30;99.90;;;;;;5030361;28;20196;-78
2023/12/15 10:13:35;;;;;;;22.20;15.00;;;11.30;99.90;;;;;;5037327;28;20183;-78
2023/12/15 10:16:01;;;;;;;18.03;14.83;;;11.30;99.90;;;;;;5050497;28;20264;-78
2023/12/15 10:18:27;;;;;;;22.53;16.07;;;11.40;99.90;;;;;;5033091;28;20594;-78
2023/12/15 10:20:55;;;;;;;22.67;16.00;;;11.40;99.90;;;;;;5035682;28;20620;-78
2023/12/15 10:23:29;;;;;;;24.02;16.00;;;11.40;99.90;;;;;;5032784;28;20213;-77
2023/12/15 10:25:58;;;;;;;21.30;14.45;;;11.40;99.90;;;;;;5033253;28;20203;-77
2023/12/15 10:28:24;;;;;;;24.27;17.50;;;11.40;99.90;;;;;;5033258;28;20203;-77
2023/12/15 10:30:50;;;;;;;20.80;15.60;;;11.50;99.90;;;;;;5015970;28;20229;-77
2023/12/15 10:33:18;;;;;;;18.02;14.48;;;11.50;99.90;;;;;;5036036;28;20181;-77
2023/12/15 10:35:47;;;;;;;21.92;16.48;;;11.60;99.90;;;;;;5057542;28;20187;-77
2023/12/15 10:38:14;;;;;;;25.90;16.63;;;11.60;99.90;;;;;;5057672;28;20200;-77
2023/12/15 10:40:45;;;;;;;18.70;14.55;;;11.70;99.90;;;;;;5032167;28;20208;-79
2023/12/15 10:43:11;;;;;;;25.40;16.30;;;11.70;99.90;;;;;;5032197;28;20232;-80
2023/12/15 10:45:37;;;;;;;22.63;16.55;;;11.70;99.90;;;;;;5049744;28;20173;-79
2023/12/15 10:48:03;;;;;;;19.57;14.77;;;11.70;99.90;;;;;;5033093;28;20242;-80
2023/12/15 10:50:30;;;;;;;17.45;13.77;;;11.70;99.90;;;;;;5046353;28;20626;-80
2023/12/15 10:52:57;;;;;;;21.60;14.80;;;11.80;99.90;;;;;;5031974;28;20699;-80
2023/12/15 10:55:25;;;;;;;20.65;15.02;;;11.80;99.90;;;;;;5015837;28;20181;-79
2023/12/15 10:57:51;;;;;;;21.20;15.98;;;11.80;99.90;;;;;;5032347;28;20248;-80
2023/12/15 11:00:18;;;;;;;19.08;14.52;;;11.90;99.90;;;;;;5039463;28;20232;-80
2023/12/15 11:02:45;;;;;;;20.00;14.70;;;11.80;99.90;;;;;;5032541;28;20193;-80
2023/12/15 11:05:11;;;;;;;19.42;15.00;;;11.90;99.90;;;;;;5032507;28;20622;-79
2023/12/15 11:07:39;;;;;;;23.33;15.30;;;11.90;99.90;;;;;;5032634;28;20524;-79
2023/12/15 11:10:05;;;;;;;26.08;16.42;;;11.90;99.90;;;;;;5024820;28;20612;-79
2023/12/15 11:12:42;;;;;;;19.88;15.90;;;12.00;99.90;;;;;;5024398;28;20193;-80
2023/12/15 11:15:18;;;;;;;20.13;15.40;;;12.00;99.90;;;;;;5032745;28;20231;-80
2023/12/15 11:17:49;;;;;;;20.88;13.73;;;12.00;99.90;;;;;;5033405;28;20173;-80
2023/12/15 11:20:20;;;;;;;25.33;15.45;;;12.00;99.90;;;;;;5032412;28;20546;-80
2023/12/15 11:23:07;;;;;;;23.15;14.40;;;12.00;99.90;;;;;;5050626;28;20196;-78
2023/12/15 11:25:46;;;;;;;18.30;14.70;;;12.00;99.90;;;;;;5032789;28;20255;-79
2023/12/15 11:28:15;;;;;;;25.50;16.77;;;12.00;99.90;;;;;;5034576;28;20543;-78
2023/12/15 11:30:52;;;;;;;20.80;16.05;;;12.10;99.90;;;;;;5031939;28;20197;-78
2023/12/15 11:33:24;;;;;;;22.23;16.80;;;12.10;99.90;;;;;;5032418;28;20234;-79
2023/12/15 11:36:05;;;;;;;22.45;16.80;;;12.20;99.90;;;;;;5032653;28;20265;-78
2023/12/15 11:38:30;;;;;;;20.90;16.30;;;12.20;99.90;;;;;;5032288;28;20185;-78
2023/12/15 11:40:57;;;;;;;25.53;18.10;;;12.20;99.90;;;;;;5049431;28;20216;-79
2023/12/15 11:43:26;;;;;;;27.45;18.92;;;12.20;99.90;;;;;;5032285;28;20205;-79
2023/12/15 11:45:55;;;;;;;29.80;19.85;;;12.20;99.90;;;;;;5043017;28;20177;-79
2023/12/15 11:48:24;;;;;;;25.90;17.77;;;12.20;99.90;;;;;;5052452;28;20416;-78
2023/12/15 11:50:50;;;;;;;29.92;17.92;;;12.20;99.90;;;;;;5049671;28;20225;-78
2023/12/15 11:53:18;;;;;;;41.17;21.40;;;12.30;99.90;;;;;;5032291;28;20256;-79
2023/12/15 11:55:46;;;;;;;32.88;20.15;;;12.30;99.90;;;;;;5021407;28;20642;-79
2023/12/15 11:58:15;;;;;;;28.98;18.63;;;12.40;99.90;;;;;;5062070;28;20223;-78
2023/12/15 12:00:44;;;;;;;33.33;19.93;;;12.40;99.90;;;;;;5031994;28;20231;-79
2023/12/15 12:03:15;;;;;;;26.38;18.25;;;12.40;99.90;;;;;;5046866;28;20647;-78
2023/12/15 12:05:42;;;;;;;23.70;16.83;;;12.40;99.90;;;;;;5029618;28;20261;-79
2023/12/15 12:08:13;;;;;;;27.20;17.60;;;12.50;99.90;;;;;;5023804;28;20687;-79
2023/12/15 12:10:39;;;;;;;21.53;15.63;;;12.40;99.90;;;;;;5049449;28;20615;-79
2023/12/15 12:13:09;;;;;;;23.63;14.95;;;12.50;99.90;;;;;;5031776;28;20678;-79
2023/12/15 12:15:49;;;;;;;25.35;16.90;;;12.50;99.90;;;;;;5032009;28;20181;-79
2023/12/15 12:18:15;;;;;;;28.38;15.68;;;12.40;99.90;;;;;;5022996;28;20227;-79
2023/12/15 12:20:41;;;;;;;23.77;16.43;;;12.50;99.90;;;;;;5030537;28;20200;-79
2023/12/15 12:23:07;;;;;;;24.27;16.33;;;12.40;99.90;;;;;;5028560;28;20232;-79
2023/12/15 12:25:33;;;;;;;23.53;16.00;;;12.50;99.90;;;;;;5049509;28;20937;-79
2023/12/15 12:27:58;;;;;;;23.00;16.63;;;12.40;99.90;;;;;;5031869;28;20196;-79
2023/12/15 12:30:24;;;;;;;28.57;16.53;;;12.40;99.90;;;;;;5049376;28;20239;-79
2023/12/15 12:32:50;;;;;;;27.47;17.30;;;12.40;99.90;;;;;;5032086;28;20264;-79
2023/12/15 12:35:15;;;;;;;23.30;16.37;;;12.40;99.90;;;;;;5031997;28;20169;-79
2023/12/15 12:37:41;;;;;;;25.37;16.00;;;12.40;99.90;;;;;;4999488;28;20184;-78